Bullock, North Carolina
Current Conditions -  °F | °C
As of 7:15 AM on Friday 21 Nov 2014 (Local Time) from KW63 Reporting Station
Clear Clear  
Wind Chill: 27°   Ceiling: Unl
Heat Index: 32°   Visibility: 10mi
Dew Point: 18°   Wind: 5mph
Humidity: 55%   Direction: 340°NNW
Pressure: 30.34"   Gusts: NA
Location:  36.49°N, 78.55°W
Report Text: KW63 211215Z AUTO 34004KT 10SM CLR 00/M08 A3034 RMK AO1
Loading
Personal Weather Stations






























Interactive Weather Map New forecast layout! Learn more

10-Day Weather Forecast

Advertisements
Track Severe Weather on mobile